createdAt,value
2023-03-07T00:01:03.188Z,10.10
2023-03-07T00:03:31.670Z,10.10
2023-03-07T00:06:05.053Z,10.00
2023-03-07T00:08:33.652Z,10.00
2023-03-07T00:11:03.205Z,9.90
2023-03-07T00:13:33.114Z,9.80
2023-03-07T00:16:05.182Z,9.80
2023-03-07T00:18:34.292Z,9.80
2023-03-07T00:21:06.823Z,9.80
2023-03-07T00:23:35.712Z,9.80
2023-03-07T00:26:05.856Z,9.80
2023-03-07T00:28:34.024Z,9.70
2023-03-07T00:31:03.348Z,9.70
2023-03-07T00:33:32.146Z,9.60
2023-03-07T00:36:02.238Z,9.60
2023-03-07T00:38:32.900Z,9.60
2023-03-07T00:41:02.130Z,9.50
2023-03-07T00:43:30.846Z,9.50
2023-03-07T00:45:59.544Z,9.50
2023-03-07T00:48:28.580Z,9.50
2023-03-07T00:50:57.244Z,9.50
2023-03-07T00:53:26.022Z,9.40
2023-03-07T00:56:00.738Z,9.30
2023-03-07T00:58:30.303Z,9.40
2023-03-07T01:00:58.802Z,9.30
2023-03-07T01:03:27.468Z,9.30
2023-03-07T01:05:55.992Z,9.30
2023-03-07T01:08:24.442Z,9.20
2023-03-07T01:10:52.838Z,9.20
2023-03-07T01:13:22.461Z,9.20
2023-03-07T01:15:51.023Z,9.20
2023-03-07T01:18:19.328Z,9.20
2023-03-07T01:20:47.554Z,9.20
2023-03-07T01:23:15.927Z,9.20
2023-03-07T01:25:45.045Z,9.20
2023-03-07T01:28:15.371Z,9.20
2023-03-07T01:30:44.939Z,9.20
2023-03-07T01:33:13.063Z,9.30
2023-03-07T01:35:41.587Z,9.30
2023-03-07T01:38:10.700Z,9.30
2023-03-07T01:40:39.868Z,9.40
2023-03-07T01:43:25.606Z,9.30
2023-03-07T01:46:45.208Z,9.30
2023-03-07T01:49:19.593Z,9.30
2023-03-07T01:51:50.398Z,9.30
2023-03-07T01:54:20.676Z,9.40
2023-03-07T01:56:49.197Z,9.40
2023-03-07T01:59:24.866Z,9.40
2023-03-07T02:01:54.869Z,9.50
2023-03-07T02:04:29.991Z,9.50
2023-03-07T02:06:58.506Z,9.50
2023-03-07T02:09:28.071Z,9.60
2023-03-07T02:11:58.025Z,9.60
2023-03-07T02:14:26.327Z,9.60
2023-03-07T02:16:56.038Z,9.70
2023-03-07T02:19:35.406Z,9.80
2023-03-07T02:22:10.408Z,9.80
2023-03-07T02:24:44.882Z,9.90
2023-03-07T02:27:15.790Z,9.90
2023-03-07T02:29:43.952Z,9.90
2023-03-07T02:32:12.264Z,9.80
2023-03-07T02:34:40.494Z,9.90
2023-03-07T02:37:12.306Z,9.80
2023-03-07T02:39:42.758Z,9.80
2023-03-07T02:42:15.417Z,9.80
2023-03-07T02:44:45.919Z,9.80
2023-03-07T02:47:14.273Z,9.90
2023-03-07T02:49:42.421Z,9.90
2023-03-07T02:52:10.644Z,9.90
2023-03-07T02:54:39.245Z,10.00
2023-03-07T02:57:07.505Z,10.00
2023-03-07T02:59:37.067Z,10.00
2023-03-07T03:02:05.381Z,10.10
2023-03-07T03:04:33.570Z,10.20
2023-03-07T03:07:01.817Z,10.20
2023-03-07T03:09:31.472Z,10.20
2023-03-07T03:11:59.861Z,10.20
2023-03-07T03:14:28.161Z,10.20
2023-03-07T03:16:57.665Z,10.20
2023-03-07T03:19:25.789Z,10.20
2023-03-07T03:21:53.918Z,10.30
2023-03-07T03:24:22.123Z,10.30
2023-03-07T03:26:50.329Z,10.30
2023-03-07T03:29:18.559Z,10.30
2023-03-07T03:31:46.646Z,10.30
2023-03-07T03:34:16.220Z,10.20
2023-03-07T03:36:44.407Z,10.20
2023-03-07T03:39:14.577Z,10.10
2023-03-07T03:41:42.794Z,10.10
2023-03-07T03:44:11.216Z,10.10
2023-03-07T03:46:39.507Z,10.10
2023-03-07T03:49:07.654Z,10.10
2023-03-07T03:51:37.308Z,10.10
2023-03-07T03:54:05.624Z,10.10
2023-03-07T03:56:33.852Z,10.10
2023-03-07T03:59:02.152Z,10.10
2023-03-07T04:01:30.945Z,10.10
2023-03-07T04:03:59.977Z,10.10
2023-03-07T04:06:29.716Z,10.10
2023-03-07T04:08:59.485Z,10.00
2023-03-07T04:11:28.064Z,10.00
2023-03-07T04:13:56.314Z,10.00
2023-03-07T04:16:24.620Z,10.00
2023-03-07T04:18:53.185Z,9.90
2023-03-07T04:21:22.718Z,9.90
2023-03-07T04:23:55.413Z,9.80
2023-03-07T04:26:25.091Z,9.80
2023-03-07T04:28:53.264Z,9.70
2023-03-07T04:31:23.313Z,9.70
2023-03-07T04:33:53.012Z,9.60
2023-03-07T04:36:21.856Z,9.50
2023-03-07T04:38:51.030Z,9.50
2023-03-07T04:41:21.645Z,9.50
2023-03-07T04:43:51.290Z,9.40
2023-03-07T04:46:20.501Z,9.40
2023-03-07T04:48:48.923Z,9.40
2023-03-07T04:51:17.350Z,9.40
2023-03-07T04:53:45.810Z,9.30
2023-03-07T04:56:15.297Z,9.30
2023-03-07T04:58:44.145Z,9.20
2023-03-07T05:01:14.333Z,9.20
2023-03-07T05:03:42.751Z,9.20
2023-03-07T05:06:15.195Z,9.10
2023-03-07T05:08:43.362Z,9.10
2023-03-07T05:11:11.476Z,9.10
2023-03-07T05:13:39.543Z,9.10
2023-03-07T05:16:08.274Z,9.00
2023-03-07T05:18:37.858Z,9.00
2023-03-07T05:21:06.419Z,9.00
2023-03-07T05:23:34.611Z,8.90
2023-03-07T05:26:02.820Z,8.90
2023-03-07T05:28:31.089Z,8.90
2023-03-07T05:30:59.347Z,8.90
2023-03-07T05:33:27.529Z,8.80
2023-03-07T05:36:00.910Z,8.80
2023-03-07T05:38:29.287Z,8.70
2023-03-07T05:40:57.499Z,8.60
2023-03-07T05:43:25.758Z,8.60
2023-03-07T05:45:53.990Z,8.60
2023-03-07T05:48:22.159Z,8.60
2023-03-07T05:50:50.344Z,8.60
2023-03-07T05:53:19.915Z,8.60
2023-03-07T05:55:48.133Z,8.50
2023-03-07T05:58:16.397Z,8.50
2023-03-07T06:00:44.570Z,8.40
2023-03-07T06:03:12.806Z,8.40
2023-03-07T06:05:41.046Z,8.40
2023-03-07T06:08:09.327Z,8.40
2023-03-07T06:10:40.372Z,8.40
2023-03-07T06:13:08.529Z,8.40
2023-03-07T06:15:36.716Z,8.40
2023-03-07T06:18:06.706Z,8.40
2023-03-07T06:20:34.865Z,8.40
2023-03-07T06:23:03.065Z,8.40
2023-03-07T06:25:31.295Z,8.40
2023-03-07T06:28:01.501Z,8.40
2023-03-07T06:30:29.998Z,8.40
2023-03-07T06:32:58.230Z,8.50
2023-03-07T06:35:26.647Z,8.50
2023-03-07T06:37:54.811Z,8.50
2023-03-07T06:40:23.007Z,8.60
2023-03-07T06:42:52.703Z,8.70
2023-03-07T06:45:22.146Z,8.70
2023-03-07T06:47:50.352Z,8.80
2023-03-07T06:50:23.744Z,8.80
2023-03-07T06:52:58.108Z,8.90
2023-03-07T06:55:26.253Z,9.00
2023-03-07T06:57:54.459Z,9.10
2023-03-07T07:00:24.194Z,9.10
2023-03-07T07:02:52.430Z,9.20
2023-03-07T07:05:20.563Z,9.30
2023-03-07T07:07:48.670Z,9.40
2023-03-07T07:10:17.109Z,9.50
2023-03-07T07:12:45.258Z,9.60
2023-03-07T07:15:13.616Z,9.70
2023-03-07T07:17:43.151Z,9.70
2023-03-07T07:20:12.632Z,9.80
2023-03-07T07:22:40.727Z,9.90
2023-03-07T07:25:09.585Z,9.90
2023-03-07T07:27:38.044Z,10.00
2023-03-07T07:30:07.920Z,10.10
2023-03-07T07:32:36.315Z,10.20
2023-03-07T07:35:06.917Z,10.20
2023-03-07T07:37:35.101Z,10.30
2023-03-07T07:40:05.220Z,10.30
2023-03-07T07:42:33.377Z,10.40
2023-03-07T07:45:01.491Z,10.40
2023-03-07T07:47:29.601Z,10.50
2023-03-07T07:49:57.726Z,10.50
2023-03-07T07:52:27.356Z,10.60
2023-03-07T07:54:55.499Z,10.60
2023-03-07T07:57:23.757Z,10.70
2023-03-07T07:59:51.912Z,10.80
2023-03-07T08:02:20.130Z,10.80
2023-03-07T08:04:48.409Z,10.90
2023-03-07T08:07:16.576Z,11.00
2023-03-07T08:09:46.099Z,11.10
2023-03-07T08:12:14.351Z,11.10
2023-03-07T08:14:42.456Z,11.10
2023-03-07T08:17:10.794Z,11.20
2023-03-07T08:19:39.027Z,11.20
2023-03-07T08:22:07.258Z,11.20
2023-03-07T08:24:40.797Z,11.20
2023-03-07T08:27:10.786Z,11.20
2023-03-07T08:29:39.004Z,11.20
2023-03-07T08:32:07.879Z,11.10
2023-03-07T08:34:36.051Z,11.20
2023-03-07T08:37:04.588Z,11.20
2023-03-07T08:39:32.731Z,11.20
2023-03-07T08:42:00.938Z,11.20
2023-03-07T08:44:30.707Z,11.10
2023-03-07T08:46:58.959Z,11.10
2023-03-07T08:49:27.193Z,11.20
2023-03-07T08:51:55.490Z,11.20
2023-03-07T08:54:23.715Z,11.20
2023-03-07T08:56:52.014Z,11.20
2023-03-07T08:59:20.354Z,11.20
2023-03-07T09:01:50.063Z,11.20
2023-03-07T09:04:18.332Z,11.20
2023-03-07T09:06:46.529Z,11.30
2023-03-07T09:09:14.774Z,11.30
2023-03-07T09:11:43.043Z,11.30
2023-03-07T09:14:11.289Z,11.30
2023-03-07T09:16:39.664Z,11.20
2023-03-07T09:19:09.377Z,11.20
2023-03-07T09:21:37.633Z,11.30
2023-03-07T09:24:06.287Z,11.40
2023-03-07T09:26:34.755Z,11.40
2023-03-07T09:29:02.922Z,11.40
2023-03-07T09:31:31.115Z,11.40
2023-03-07T09:33:59.294Z,11.50
2023-03-07T09:36:28.955Z,11.50
2023-03-07T09:38:58.240Z,11.60
2023-03-07T09:41:58.417Z,11.60
2023-03-07T09:44:38.060Z,11.70
2023-03-07T09:47:26.500Z,11.70
2023-03-07T09:49:55.449Z,11.70
2023-03-07T09:52:29.080Z,11.80
2023-03-07T09:55:00.187Z,11.90
2023-03-07T09:57:31.796Z,11.90
2023-03-07T10:00:04.063Z,12.00
2023-03-07T10:02:38.548Z,12.00
2023-03-07T10:05:14.922Z,12.00
2023-03-07T10:07:44.498Z,12.00
2023-03-07T10:10:15.743Z,12.00
2023-03-07T10:12:59.180Z,12.10
2023-03-07T10:15:42.556Z,12.10
2023-03-07T10:18:22.488Z,12.10
2023-03-07T10:20:54.076Z,12.10
2023-03-07T10:23:37.888Z,12.10
2023-03-07T10:26:11.924Z,12.20
2023-03-07T10:28:42.854Z,12.20
2023-03-07T10:31:21.700Z,12.10
2023-03-07T10:33:52.004Z,12.10
2023-03-07T10:36:22.371Z,12.10
2023-03-07T10:39:01.256Z,12.10
2023-03-07T10:41:29.835Z,12.10
2023-03-07T10:43:58.808Z,12.20
2023-03-07T10:46:30.231Z,12.20
2023-03-07T10:49:04.741Z,12.20
2023-03-07T10:51:48.436Z,12.20
2023-03-07T10:54:21.313Z,12.20
2023-03-07T10:57:09.281Z,12.30
2023-03-07T10:59:38.785Z,12.30
2023-03-07T11:02:30.372Z,12.40
2023-03-07T11:04:59.235Z,12.40
2023-03-07T11:07:30.298Z,12.40
2023-03-07T11:10:01.805Z,12.50
2023-03-07T11:12:31.974Z,12.60
2023-03-07T11:15:12.028Z,12.60
2023-03-07T11:17:44.193Z,12.60
2023-03-07T11:20:21.986Z,12.60
2023-03-07T11:22:50.543Z,12.70
2023-03-07T11:25:25.298Z,12.70
2023-03-07T11:27:55.052Z,12.70
2023-03-07T11:30:27.904Z,12.70
2023-03-07T11:33:03.358Z,12.70
2023-03-07T11:35:50.710Z,12.80
2023-03-07T11:38:33.030Z,12.80
2023-03-07T11:41:07.026Z,12.80
2023-03-07T11:43:47.543Z,12.90
2023-03-07T11:46:23.606Z,12.90
2023-03-07T11:49:04.557Z,13.00
2023-03-07T11:51:42.648Z,13.00
2023-03-07T11:54:20.682Z,13.10
2023-03-07T11:56:54.211Z,13.10
2023-03-07T11:59:51.751Z,13.10
2023-03-07T12:03:03.404Z,13.10
2023-03-07T12:05:40.973Z,13.20
2023-03-07T12:08:41.880Z,13.20
2023-03-07T12:11:19.514Z,13.20
2023-03-07T12:13:57.658Z,13.30
2023-03-07T12:16:35.497Z,13.40
2023-03-07T12:19:26.965Z,13.40
2023-03-07T12:22:09.347Z,13.40
2023-03-07T12:24:41.556Z,13.50
2023-03-07T12:27:17.324Z,13.50
2023-03-07T12:29:50.843Z,13.60
2023-03-07T12:32:24.944Z,13.70
2023-03-07T12:34:55.373Z,13.70
2023-03-07T12:37:26.799Z,13.80
2023-03-07T12:39:59.771Z,13.80
2023-03-07T12:42:36.435Z,13.80
2023-03-07T12:45:12.281Z,13.90
2023-03-07T12:47:53.073Z,13.90
2023-03-07T12:50:28.914Z,13.90
2023-03-07T12:53:05.268Z,13.90
2023-03-07T12:55:37.906Z,14.00
2023-03-07T12:58:10.481Z,14.00
2023-03-07T13:00:42.957Z,14.00
2023-03-07T13:03:17.685Z,14.00
2023-03-07T13:05:46.321Z,14.00
2023-03-07T13:08:21.757Z,14.10
2023-03-07T13:10:50.355Z,14.10
2023-03-07T13:13:50.738Z,14.20
2023-03-07T13:16:38.015Z,14.20
2023-03-07T13:19:42.837Z,14.30
2023-03-07T13:22:48.300Z,14.30
2023-03-07T13:26:05.050Z,14.30
2023-03-07T13:28:55.568Z,14.40
2023-03-07T13:31:40.408Z,14.40
2023-03-07T13:34:51.728Z,14.40
2023-03-07T13:37:54.480Z,14.50
2023-03-07T13:40:46.356Z,14.50
2023-03-07T13:44:00.064Z,14.50
2023-03-07T13:47:01.354Z,14.60
2023-03-07T13:49:54.031Z,14.60
2023-03-07T13:52:46.076Z,14.50
2023-03-07T13:55:29.992Z,14.40
2023-03-07T13:58:01.516Z,14.40
2023-03-07T14:00:37.167Z,14.40
2023-03-07T14:03:27.928Z,14.50
2023-03-07T14:05:59.244Z,14.50
2023-03-07T14:08:34.056Z,14.50
2023-03-07T14:11:02.433Z,14.50
2023-03-07T14:13:56.310Z,14.50
2023-03-07T14:16:47.296Z,14.50
2023-03-07T14:19:33.826Z,14.40
2023-03-07T14:22:06.444Z,14.30
2023-03-07T14:24:48.427Z,14.30
2023-03-07T14:27:17.528Z,14.30
2023-03-07T14:29:51.995Z,14.20
2023-03-07T14:32:24.172Z,14.20
2023-03-07T14:34:54.490Z,14.20
2023-03-07T14:37:26.270Z,14.10
2023-03-07T14:40:20.607Z,14.00
2023-03-07T14:42:58.145Z,14.00
2023-03-07T14:45:33.237Z,13.90
2023-03-07T14:48:24.021Z,13.90
2023-03-07T14:50:54.382Z,13.80
2023-03-07T14:53:24.523Z,13.80
2023-03-07T14:55:54.336Z,13.80
2023-03-07T14:58:25.896Z,13.90
2023-03-07T15:01:02.196Z,13.90
2023-03-07T15:03:31.537Z,13.90
2023-03-07T15:06:02.841Z,13.90
2023-03-07T15:08:33.353Z,13.90
2023-03-07T15:11:06.275Z,13.90
2023-03-07T15:13:39.645Z,13.90
2023-03-07T15:16:13.570Z,13.90
2023-03-07T15:18:44.998Z,14.00
2023-03-07T15:21:20.751Z,14.00
2023-03-07T15:23:53.969Z,14.00
2023-03-07T15:26:24.796Z,14.00
2023-03-07T15:29:00.633Z,14.00
2023-03-07T15:31:32.204Z,13.80
2023-03-07T15:34:21.660Z,13.70
2023-03-07T15:36:51.284Z,13.70
2023-03-07T15:39:34.477Z,13.70
2023-03-07T15:42:07.235Z,13.70
2023-03-07T15:44:36.430Z,13.60
2023-03-07T15:47:13.570Z,13.60
2023-03-07T15:49:45.020Z,13.60
2023-03-07T15:52:24.176Z,13.60
2023-03-07T15:54:54.857Z,13.50
2023-03-07T15:57:25.326Z,13.40
2023-03-07T15:59:58.122Z,13.50
2023-03-07T16:02:44.707Z,13.40
2023-03-07T16:05:37.078Z,13.50
2023-03-07T16:08:15.000Z,13.50
2023-03-07T16:10:48.315Z,13.50
2023-03-07T16:13:19.607Z,13.40
2023-03-07T16:15:47.864Z,13.40
2023-03-07T16:18:23.638Z,13.40
2023-03-07T16:20:51.875Z,13.40
2023-03-07T16:23:21.567Z,13.40
2023-03-07T16:25:49.932Z,13.30
2023-03-07T16:28:18.141Z,13.40
2023-03-07T16:30:47.166Z,13.40
2023-03-07T16:33:15.746Z,13.30
2023-03-07T16:35:45.242Z,13.30
2023-03-07T16:38:13.650Z,13.20
2023-03-07T16:40:45.099Z,13.20
2023-03-07T16:43:34.127Z,13.10
2023-03-07T16:46:04.354Z,13.20
2023-03-07T16:48:32.897Z,13.10
2023-03-07T16:51:01.173Z,12.80
2023-03-07T16:53:29.413Z,12.80
2023-03-07T16:56:00.304Z,12.80
2023-03-07T16:58:33.607Z,12.80
2023-03-07T17:01:02.057Z,12.80
2023-03-07T17:03:30.906Z,12.80
2023-03-07T17:05:59.167Z,12.80
2023-03-07T17:08:27.202Z,12.80
2023-03-07T17:10:55.367Z,12.80
2023-03-07T17:13:25.096Z,12.80
2023-03-07T17:15:53.397Z,12.80
2023-03-07T17:18:22.398Z,12.70
2023-03-07T17:20:50.594Z,12.70
2023-03-07T17:23:21.903Z,12.70
2023-03-07T17:25:50.320Z,12.70
2023-03-07T17:28:20.324Z,12.80
2023-03-07T17:30:50.219Z,12.70
2023-03-07T17:33:19.734Z,12.80
2023-03-07T17:35:48.000Z,12.80
2023-03-07T17:38:16.177Z,12.80
2023-03-07T17:40:44.887Z,12.80
2023-03-07T17:43:13.515Z,12.80
2023-03-07T17:45:41.697Z,12.80
2023-03-07T17:48:11.336Z,12.80
2023-03-07T17:50:41.373Z,12.80
2023-03-07T17:53:09.677Z,12.80
2023-03-07T17:55:39.372Z,12.70
2023-03-07T17:58:09.511Z,12.70
2023-03-07T18:00:38.474Z,12.70
2023-03-07T18:03:07.071Z,12.70
2023-03-07T18:05:36.834Z,12.60
2023-03-07T18:08:05.460Z,12.60
2023-03-07T18:10:33.652Z,12.60
2023-03-07T18:13:01.854Z,12.60
2023-03-07T18:15:30.055Z,12.50
2023-03-07T18:17:59.615Z,12.50
2023-03-07T18:20:29.709Z,12.40
2023-03-07T18:22:59.238Z,12.40
2023-03-07T18:25:27.429Z,12.40
2023-03-07T18:27:55.594Z,12.40
2023-03-07T18:30:23.979Z,12.40
2023-03-07T18:32:55.451Z,12.40
2023-03-07T18:35:24.511Z,12.40
2023-03-07T18:37:52.813Z,12.40
2023-03-07T18:40:24.847Z,12.40
2023-03-07T18:42:53.028Z,12.30
2023-03-07T18:45:21.339Z,12.30
2023-03-07T18:47:49.573Z,12.40
2023-03-07T18:50:18.316Z,12.40
2023-03-07T18:52:46.620Z,12.40
2023-03-07T18:55:14.779Z,12.40
2023-03-07T18:57:44.268Z,12.40
2023-03-07T19:00:13.570Z,12.40
2023-03-07T19:02:41.866Z,12.40
2023-03-07T19:05:10.961Z,12.40
2023-03-07T19:07:39.106Z,12.50
2023-03-07T19:10:08.063Z,12.50
2023-03-07T19:12:36.691Z,12.40
2023-03-07T19:15:07.404Z,12.30
2023-03-07T19:17:40.141Z,12.30
2023-03-07T19:20:09.470Z,12.30
2023-03-07T19:22:37.688Z,12.30
2023-03-07T19:25:06.865Z,12.40
2023-03-07T19:27:35.185Z,12.40
2023-03-07T19:30:03.579Z,12.50
2023-03-07T19:32:33.691Z,12.50
2023-03-07T19:35:01.971Z,12.50
2023-03-07T19:37:30.180Z,12.50
2023-03-07T19:39:58.341Z,12.50
2023-03-07T19:42:26.649Z,12.50
2023-03-07T19:44:56.702Z,12.50
2023-03-07T19:47:24.841Z,12.50
2023-03-07T19:49:54.507Z,12.50
2023-03-07T19:52:22.696Z,12.50
2023-03-07T19:54:53.284Z,12.50
2023-03-07T19:57:21.462Z,12.50
2023-03-07T19:59:53.516Z,12.50
2023-03-07T20:02:22.967Z,12.50
2023-03-07T20:04:53.072Z,12.50
2023-03-07T20:07:22.734Z,12.40
2023-03-07T20:09:52.723Z,12.40
2023-03-07T20:12:20.878Z,12.40
2023-03-07T20:14:49.229Z,12.40
2023-03-07T20:17:17.573Z,12.40
2023-03-07T20:19:45.705Z,12.40
2023-03-07T20:22:14.174Z,12.40
2023-03-07T20:24:43.804Z,12.40
2023-03-07T20:27:12.144Z,12.40
2023-03-07T20:29:40.272Z,12.40
2023-03-07T20:32:08.464Z,12.30
2023-03-07T20:34:36.872Z,12.30
2023-03-07T20:37:05.054Z,12.30
2023-03-07T20:39:33.303Z,12.30
2023-03-07T20:42:03.114Z,12.20
2023-03-07T20:44:31.366Z,12.10
2023-03-07T20:46:59.562Z,12.10
2023-03-07T20:49:28.059Z,12.10
2023-03-07T20:51:56.204Z,12.10
2023-03-07T20:54:24.346Z,12.10
2023-03-07T20:56:52.558Z,12.00
2023-03-07T20:59:22.121Z,12.00
2023-03-07T21:01:50.376Z,12.00
2023-03-07T21:04:20.696Z,12.00
2023-03-07T21:06:49.980Z,12.00
2023-03-07T21:09:19.370Z,12.00
2023-03-07T21:11:49.148Z,12.00
2023-03-07T21:14:18.925Z,12.00
2023-03-07T21:16:48.584Z,11.90
2023-03-07T21:19:16.768Z,11.90
2023-03-07T21:21:45.285Z,11.80
2023-03-07T21:24:15.503Z,11.80
2023-03-07T21:26:43.793Z,11.80
2023-03-07T21:29:13.813Z,11.70
2023-03-07T21:31:42.076Z,11.70
2023-03-07T21:34:14.137Z,11.60
2023-03-07T21:36:42.394Z,11.60
2023-03-07T21:39:11.716Z,11.50
2023-03-07T21:41:39.888Z,11.50
2023-03-07T21:44:08.395Z,11.50
2023-03-07T21:46:36.572Z,11.50
2023-03-07T21:49:04.851Z,11.50
2023-03-07T21:51:34.660Z,11.40
2023-03-07T21:54:02.747Z,11.40
2023-03-07T21:56:31.003Z,11.40
2023-03-07T21:58:59.123Z,11.30
2023-03-07T22:01:29.767Z,11.30
2023-03-07T22:04:00.093Z,11.30
2023-03-07T22:06:28.746Z,11.20
2023-03-07T22:08:59.994Z,11.20
2023-03-07T22:11:28.595Z,11.20
2023-03-07T22:13:56.914Z,11.10
2023-03-07T22:16:25.166Z,11.10
2023-03-07T22:18:54.657Z,11.00
2023-03-07T22:21:25.087Z,11.00
2023-03-07T22:23:57.718Z,11.00
2023-03-07T22:26:28.567Z,10.90
2023-03-07T22:28:56.945Z,10.90
2023-03-07T22:31:25.553Z,10.90
2023-03-07T22:33:54.000Z,10.90
2023-03-07T22:36:22.497Z,10.80
2023-03-07T22:38:55.068Z,10.80
2023-03-07T22:41:24.642Z,10.80
2023-03-07T22:43:54.491Z,10.80
2023-03-07T22:46:23.239Z,10.80
2023-03-07T22:48:53.885Z,10.80
2023-03-07T22:51:22.806Z,10.80
2023-03-07T22:53:51.448Z,10.80
2023-03-07T22:56:21.931Z,10.80
2023-03-07T22:58:50.723Z,10.80
2023-03-07T23:01:21.949Z,10.80
2023-03-07T23:03:51.363Z,10.80
2023-03-07T23:06:19.589Z,10.80
2023-03-07T23:08:48.937Z,10.90
2023-03-07T23:11:18.107Z,10.90
2023-03-07T23:13:46.617Z,10.90
2023-03-07T23:16:17.712Z,10.90
2023-03-07T23:18:50.589Z,11.00
2023-03-07T23:21:20.428Z,11.00
2023-03-07T23:23:49.010Z,11.00
2023-03-07T23:26:19.680Z,11.00
2023-03-07T23:28:49.017Z,11.00
2023-03-07T23:31:18.673Z,11.00
2023-03-07T23:33:48.180Z,11.00
2023-03-07T23:36:17.200Z,11.00
2023-03-07T23:38:46.378Z,11.00
2023-03-07T23:41:15.554Z,11.00
2023-03-07T23:43:44.718Z,11.00
2023-03-07T23:46:12.938Z,11.00
2023-03-07T23:48:41.187Z,11.00
2023-03-07T23:51:10.721Z,11.00
2023-03-07T23:53:39.130Z,11.00
2023-03-07T23:56:07.956Z,11.00
2023-03-07T23:58:36.203Z,11.00
